sensor_id;sensor_type;location;lat;lon;timestamp;P1;durP1;ratioP1;P2;durP2;ratioP2
23252;SDS011;11795;47.054;15.408;2022-09-06T00:00:00;13.5;;;12.5;;
23252;SDS011;11795;47.054;15.408;2022-09-06T00:02:00;15.1;;;14.0;;
23252;SDS011;11795;47.054;15.408;2022-09-06T00:04:00;15.1;;;14.0;;
23252;SDS011;11795;47.054;15.408;2022-09-06T00:06:04;15.5;;;14.3;;
23252;SDS011;11795;47.054;15.408;2022-09-06T00:08:00;15.5;;;14.3;;
23252;SDS011;11795;47.054;15.408;2022-09-06T00:10:00;15.5;;;14.3;;
23252;SDS011;11795;47.054;15.408;2022-09-06T00:12:00;14.6;;;13.5;;
23252;SDS011;11795;47.054;15.408;2022-09-06T00:14:00;14.6;;;13.5;;
23252;SDS011;11795;47.054;15.408;2022-09-06T00:16:04;15.8;;;14.6;;
23252;SDS011;11795;47.054;15.408;2022-09-06T00:18:00;15.8;;;14.6;;
23252;SDS011;11795;47.054;15.408;2022-09-06T00:20:00;15.8;;;14.6;;
23252;SDS011;11795;47.054;15.408;2022-09-06T00:22:00;15.9;;;14.7;;
23252;SDS011;11795;47.054;15.408;2022-09-06T00:24:00;15.9;;;14.7;;
23252;SDS011;11795;47.054;15.408;2022-09-06T00:26:00;14.7;;;13.5;;
23252;SDS011;11795;47.054;15.408;2022-09-06T00:28:01;14.7;;;13.5;;
23252;SDS011;11795;47.054;15.408;2022-09-06T00:30:00;14.7;;;13.5;;
23252;SDS011;11795;47.054;15.408;2022-09-06T00:32:00;15.1;;;13.9;;
23252;SDS011;11795;47.054;15.408;2022-09-06T00:34:00;15.1;;;13.9;;
23252;SDS011;11795;47.054;15.408;2022-09-06T00:36:00;14.2;;;13.1;;
23252;SDS011;11795;47.054;15.408;2022-09-06T00:38:00;14.2;;;13.1;;
23252;SDS011;11795;47.054;15.408;2022-09-06T00:40:00;14.2;;;13.1;;
23252;SDS011;11795;47.054;15.408;2022-09-06T00:42:00;15.5;;;14.3;;
23252;SDS011;11795;47.054;15.408;2022-09-06T00:44:00;15.5;;;14.3;;
23252;SDS011;11795;47.054;15.408;2022-09-06T00:46:00;14.0;;;13.0;;
23252;SDS011;11795;47.054;15.408;2022-09-06T00:48:00;14.0;;;13.0;;
23252;SDS011;11795;47.054;15.408;2022-09-06T00:50:00;14.0;;;13.0;;
23252;SDS011;11795;47.054;15.408;2022-09-06T00:52:00;15.0;;;13.8;;
23252;SDS011;11795;47.054;15.408;2022-09-06T00:54:01;15.0;;;13.8;;
23252;SDS011;11795;47.054;15.408;2022-09-06T00:56:00;15.4;;;14.2;;
23252;SDS011;11795;47.054;15.408;2022-09-06T00:58:00;15.4;;;14.2;;
23252;SDS011;11795;47.054;15.408;2022-09-06T01:00:00;15.4;;;14.2;;
23252;SDS011;11795;47.054;15.408;2022-09-06T01:02:00;13.8;;;12.8;;
23252;SDS011;11795;47.054;15.408;2022-09-06T01:04:00;13.8;;;12.8;;
23252;SDS011;11795;47.054;15.408;2022-09-06T01:06:04;14.6;;;13.5;;
23252;SDS011;11795;47.054;15.408;2022-09-06T01:08:01;14.6;;;13.5;;
23252;SDS011;11795;47.054;15.408;2022-09-06T01:12:03;14.9;;;13.6;;
23252;SDS011;11795;47.054;15.408;2022-09-06T01:14:03;14.9;;;13.6;;
23252;SDS011;11795;47.054;15.408;2022-09-06T01:16:01;13.8;;;12.8;;
23252;SDS011;11795;47.054;15.408;2022-09-06T01:18:04;13.8;;;12.8;;
23252;SDS011;11795;47.054;15.408;2022-09-06T01:20:07;13.8;;;12.8;;
23252;SDS011;11795;47.054;15.408;2022-09-06T01:22:03;14.6;;;13.5;;
23252;SDS011;11795;47.054;15.408;2022-09-06T01:24:09;14.6;;;13.5;;
23252;SDS011;11795;47.054;15.408;2022-09-06T01:26:02;14.2;;;13.2;;
23252;SDS011;11795;47.054;15.408;2022-09-06T01:28:05;14.2;;;13.2;;
23252;SDS011;11795;47.054;15.408;2022-09-06T01:30:01;14.2;;;13.2;;
23252;SDS011;11795;47.054;15.408;2022-09-06T01:32:02;14.9;;;13.8;;
23252;SDS011;11795;47.054;15.408;2022-09-06T01:34:09;14.9;;;13.8;;
23252;SDS011;11795;47.054;15.408;2022-09-06T01:36:00;14.5;;;13.4;;
23252;SDS011;11795;47.054;15.408;2022-09-06T01:38:00;14.5;;;13.4;;
23252;SDS011;11795;47.054;15.408;2022-09-06T01:40:00;14.5;;;13.4;;
23252;SDS011;11795;47.054;15.408;2022-09-06T01:42:01;14.4;;;13.3;;
23252;SDS011;11795;47.054;15.408;2022-09-06T01:44:00;14.4;;;13.3;;
23252;SDS011;11795;47.054;15.408;2022-09-06T01:46:02;14.5;;;13.4;;
23252;SDS011;11795;47.054;15.408;2022-09-06T01:48:01;14.5;;;13.4;;
23252;SDS011;11795;47.054;15.408;2022-09-06T01:52:03;14.6;;;13.5;;
23252;SDS011;11795;47.054;15.408;2022-09-06T01:54:06;14.6;;;13.5;;
23252;SDS011;11795;47.054;15.408;2022-09-06T01:56:02;14.3;;;13.2;;
23252;SDS011;11795;47.054;15.408;2022-09-06T01:58:07;14.3;;;13.2;;
23252;SDS011;11795;47.054;15.408;2022-09-06T02:00:01;14.3;;;13.2;;
23252;SDS011;11795;47.054;15.408;2022-09-06T02:02:02;14.1;;;13.0;;
23252;SDS011;11795;47.054;15.408;2022-09-06T02:04:02;14.1;;;13.0;;
23252;SDS011;11795;47.054;15.408;2022-09-06T02:06:01;14.7;;;13.6;;
23252;SDS011;11795;47.054;15.408;2022-09-06T02:08:00;14.7;;;13.6;;
23252;SDS011;11795;47.054;15.408;2022-09-06T02:10:03;14.7;;;13.6;;
23252;SDS011;11795;47.054;15.408;2022-09-06T02:12:00;15.0;;;13.8;;
23252;SDS011;11795;47.054;15.408;2022-09-06T02:14:00;15.0;;;13.8;;
23252;SDS011;11795;47.054;15.408;2022-09-06T02:16:01;14.4;;;13.3;;
23252;SDS011;11795;47.054;15.408;2022-09-06T02:18:01;14.4;;;13.3;;
23252;SDS011;11795;47.054;15.408;2022-09-06T02:20:01;14.4;;;13.3;;
23252;SDS011;11795;47.054;15.408;2022-09-06T02:22:00;14.6;;;13.5;;
23252;SDS011;11795;47.054;15.408;2022-09-06T02:24:00;14.6;;;13.5;;
23252;SDS011;11795;47.054;15.408;2022-09-06T02:26:01;14.7;;;13.6;;
23252;SDS011;11795;47.054;15.408;2022-09-06T02:28:00;14.7;;;13.6;;
23252;SDS011;11795;47.054;15.408;2022-09-06T02:30:02;14.7;;;13.6;;
23252;SDS011;11795;47.054;15.408;2022-09-06T02:32:00;14.4;;;13.3;;
23252;SDS011;11795;47.054;15.408;2022-09-06T02:34:00;14.4;;;13.3;;
23252;SDS011;11795;47.054;15.408;2022-09-06T02:36:02;15.4;;;14.2;;
23252;SDS011;11795;47.054;15.408;2022-09-06T02:38:00;15.4;;;14.2;;
23252;SDS011;11795;47.054;15.408;2022-09-06T02:40:00;15.4;;;14.2;;
23252;SDS011;11795;47.054;15.408;2022-09-06T02:42:00;15.2;;;13.8;;
23252;SDS011;11795;47.054;15.408;2022-09-06T02:44:00;15.2;;;13.8;;
23252;SDS011;11795;47.054;15.408;2022-09-06T02:46:00;14.7;;;13.5;;
23252;SDS011;11795;47.054;15.408;2022-09-06T02:48:00;14.7;;;13.5;;
23252;SDS011;11795;47.054;15.408;2022-09-06T02:50:00;14.7;;;13.5;;
23252;SDS011;11795;47.054;15.408;2022-09-06T02:52:00;15.2;;;14.0;;
23252;SDS011;11795;47.054;15.408;2022-09-06T02:54:00;15.2;;;14.0;;
23252;SDS011;11795;47.054;15.408;2022-09-06T02:56:00;16.0;;;14.7;;
23252;SDS011;11795;47.054;15.408;2022-09-06T02:58:00;16.0;;;14.7;;
23252;SDS011;11795;47.054;15.408;2022-09-06T03:00:00;16.0;;;14.7;;
23252;SDS011;11795;47.054;15.408;2022-09-06T03:02:00;16.6;;;15.2;;
23252;SDS011;11795;47.054;15.408;2022-09-06T03:04:00;16.6;;;15.2;;
23252;SDS011;11795;47.054;15.408;2022-09-06T03:06:00;16.4;;;15.2;;
23252;SDS011;11795;47.054;15.408;2022-09-06T03:08:00;16.4;;;15.2;;
23252;SDS011;11795;47.054;15.408;2022-09-06T03:10:00;16.4;;;15.2;;
23252;SDS011;11795;47.054;15.408;2022-09-06T03:12:00;16.1;;;14.9;;
23252;SDS011;11795;47.054;15.408;2022-09-06T03:14:00;16.1;;;14.9;;
23252;SDS011;11795;47.054;15.408;2022-09-06T03:16:00;14.7;;;13.6;;
23252;SDS011;11795;47.054;15.408;2022-09-06T03:18:00;14.7;;;13.6;;
23252;SDS011;11795;47.054;15.408;2022-09-06T03:20:00;14.7;;;13.6;;
23252;SDS011;11795;47.054;15.408;2022-09-06T03:22:00;15.0;;;13.8;;
23252;SDS011;11795;47.054;15.408;2022-09-06T03:24:00;15.0;;;13.8;;
23252;SDS011;11795;47.054;15.408;2022-09-06T03:26:00;13.8;;;12.8;;
23252;SDS011;11795;47.054;15.408;2022-09-06T03:28:00;13.8;;;12.8;;
23252;SDS011;11795;47.054;15.408;2022-09-06T03:30:00;13.8;;;12.8;;
23252;SDS011;11795;47.054;15.408;2022-09-06T03:32:00;15.4;;;14.2;;
23252;SDS011;11795;47.054;15.408;2022-09-06T03:34:00;15.4;;;14.2;;
23252;SDS011;11795;47.054;15.408;2022-09-06T03:36:00;17.3;;;15.9;;
23252;SDS011;11795;47.054;15.408;2022-09-06T03:38:00;17.3;;;15.9;;
23252;SDS011;11795;47.054;15.408;2022-09-06T03:40:00;17.3;;;15.9;;
23252;SDS011;11795;47.054;15.408;2022-09-06T03:42:00;17.7;;;16.2;;
23252;SDS011;11795;47.054;15.408;2022-09-06T03:44:00;17.7;;;16.2;;
23252;SDS011;11795;47.054;15.408;2022-09-06T03:46:01;17.7;;;16.2;;
23252;SDS011;11795;47.054;15.408;2022-09-06T03:48:00;16.8;;;15.5;;
23252;SDS011;11795;47.054;15.408;2022-09-06T03:50:00;16.8;;;15.5;;
23252;SDS011;11795;47.054;15.408;2022-09-06T03:52:00;17.4;;;15.9;;
23252;SDS011;11795;47.054;15.408;2022-09-06T03:54:00;17.4;;;15.9;;
23252;SDS011;11795;47.054;15.408;2022-09-06T03:56:00;17.4;;;15.9;;
23252;SDS011;11795;47.054;15.408;2022-09-06T03:58:00;16.9;;;15.6;;
23252;SDS011;11795;47.054;15.408;2022-09-06T04:00:00;16.9;;;15.6;;
23252;SDS011;11795;47.054;15.408;2022-09-06T04:02:00;16.7;;;15.3;;
23252;SDS011;11795;47.054;15.408;2022-09-06T04:04:00;16.7;;;15.3;;
23252;SDS011;11795;47.054;15.408;2022-09-06T04:06:00;16.7;;;15.3;;
23252;SDS011;11795;47.054;15.408;2022-09-06T04:08:00;16.1;;;14.8;;
23252;SDS011;11795;47.054;15.408;2022-09-06T04:10:00;16.1;;;14.8;;
23252;SDS011;11795;47.054;15.408;2022-09-06T04:12:00;15.2;;;14.0;;
23252;SDS011;11795;47.054;15.408;2022-09-06T04:14:00;15.2;;;14.0;;
23252;SDS011;11795;47.054;15.408;2022-09-06T04:16:00;15.2;;;14.0;;
23252;SDS011;11795;47.054;15.408;2022-09-06T04:18:00;15.9;;;14.7;;
23252;SDS011;11795;47.054;15.408;2022-09-06T04:20:00;15.9;;;14.7;;
23252;SDS011;11795;47.054;15.408;2022-09-06T04:22:00;15.0;;;13.9;;
23252;SDS011;11795;47.054;15.408;2022-09-06T04:24:00;15.0;;;13.9;;
23252;SDS011;11795;47.054;15.408;2022-09-06T04:26:00;15.0;;;13.9;;
23252;SDS011;11795;47.054;15.408;2022-09-06T04:28:00;16.8;;;15.4;;
23252;SDS011;11795;47.054;15.408;2022-09-06T04:30:00;16.8;;;15.4;;
23252;SDS011;11795;47.054;15.408;2022-09-06T04:32:00;17.0;;;15.6;;
23252;SDS011;11795;47.054;15.408;2022-09-06T04:34:00;17.0;;;15.6;;
23252;SDS011;11795;47.054;15.408;2022-09-06T04:36:00;17.0;;;15.6;;
23252;SDS011;11795;47.054;15.408;2022-09-06T04:38:00;17.0;;;15.7;;
23252;SDS011;11795;47.054;15.408;2022-09-06T04:40:00;17.0;;;15.7;;
23252;SDS011;11795;47.054;15.408;2022-09-06T04:42:00;18.6;;;17.1;;
23252;SDS011;11795;47.054;15.408;2022-09-06T04:44:00;18.6;;;17.1;;
23252;SDS011;11795;47.054;15.408;2022-09-06T04:46:02;18.6;;;17.1;;
23252;SDS011;11795;47.054;15.408;2022-09-06T04:48:00;17.5;;;16.1;;
23252;SDS011;11795;47.054;15.408;2022-09-06T04:50:00;17.5;;;16.1;;
23252;SDS011;11795;47.054;15.408;2022-09-06T04:52:00;17.3;;;16.0;;
23252;SDS011;11795;47.054;15.408;2022-09-06T04:54:00;17.3;;;16.0;;
23252;SDS011;11795;47.054;15.408;2022-09-06T04:56:00;17.3;;;16.0;;
23252;SDS011;11795;47.054;15.408;2022-09-06T04:58:00;16.9;;;15.6;;
23252;SDS011;11795;47.054;15.408;2022-09-06T05:00:00;16.9;;;15.6;;
23252;SDS011;11795;47.054;15.408;2022-09-06T05:02:00;16.3;;;15.1;;
23252;SDS011;11795;47.054;15.408;2022-09-06T05:04:00;16.3;;;15.1;;
23252;SDS011;11795;47.054;15.408;2022-09-06T05:06:04;16.3;;;15.1;;
23252;SDS011;11795;47.054;15.408;2022-09-06T05:08:00;16.9;;;15.6;;
23252;SDS011;11795;47.054;15.408;2022-09-06T05:10:00;16.9;;;15.6;;
23252;SDS011;11795;47.054;15.408;2022-09-06T05:12:00;17.7;;;16.4;;
23252;SDS011;11795;47.054;15.408;2022-09-06T05:14:00;17.7;;;16.4;;
23252;SDS011;11795;47.054;15.408;2022-09-06T05:16:00;17.7;;;16.4;;
23252;SDS011;11795;47.054;15.408;2022-09-06T05:18:00;18.7;;;17.3;;
23252;SDS011;11795;47.054;15.408;2022-09-06T05:20:00;18.7;;;17.3;;
23252;SDS011;11795;47.054;15.408;2022-09-06T05:22:00;17.5;;;16.2;;
23252;SDS011;11795;47.054;15.408;2022-09-06T05:24:00;17.5;;;16.2;;
23252;SDS011;11795;47.054;15.408;2022-09-06T05:26:00;17.5;;;16.2;;
23252;SDS011;11795;47.054;15.408;2022-09-06T05:28:00;20.0;;;18.4;;
23252;SDS011;11795;47.054;15.408;2022-09-06T05:30:00;20.0;;;18.4;;
23252;SDS011;11795;47.054;15.408;2022-09-06T05:32:00;18.5;;;17.0;;
23252;SDS011;11795;47.054;15.408;2022-09-06T05:34:00;18.5;;;17.0;;
23252;SDS011;11795;47.054;15.408;2022-09-06T05:36:00;18.5;;;17.0;;
23252;SDS011;11795;47.054;15.408;2022-09-06T05:38:00;19.2;;;17.7;;
23252;SDS011;11795;47.054;15.408;2022-09-06T05:40:00;19.2;;;17.7;;
23252;SDS011;11795;47.054;15.408;2022-09-06T05:42:05;17.5;;;16.1;;
23252;SDS011;11795;47.054;15.408;2022-09-06T05:44:00;17.5;;;16.1;;
23252;SDS011;11795;47.054;15.408;2022-09-06T05:46:00;17.5;;;16.1;;
23252;SDS011;11795;47.054;15.408;2022-09-06T05:48:00;17.9;;;16.5;;
23252;SDS011;11795;47.054;15.408;2022-09-06T05:50:00;17.9;;;16.5;;
23252;SDS011;11795;47.054;15.408;2022-09-06T05:52:00;16.9;;;15.6;;
23252;SDS011;11795;47.054;15.408;2022-09-06T05:54:00;16.9;;;15.6;;
23252;SDS011;11795;47.054;15.408;2022-09-06T05:56:00;16.9;;;15.6;;
23252;SDS011;11795;47.054;15.408;2022-09-06T05:58:00;19.7;;;18.1;;
23252;SDS011;11795;47.054;15.408;2022-09-06T06:00:00;19.7;;;18.1;;
23252;SDS011;11795;47.054;15.408;2022-09-06T06:02:00;20.3;;;18.7;;
23252;SDS011;11795;47.054;15.408;2022-09-06T06:04:02;20.3;;;18.7;;
23252;SDS011;11795;47.054;15.408;2022-09-06T06:06:00;20.3;;;18.7;;
23252;SDS011;11795;47.054;15.408;2022-09-06T06:08:00;20.2;;;18.6;;
23252;SDS011;11795;47.054;15.408;2022-09-06T06:10:00;20.2;;;18.6;;
23252;SDS011;11795;47.054;15.408;2022-09-06T06:12:00;20.4;;;18.8;;
23252;SDS011;11795;47.054;15.408;2022-09-06T06:14:00;20.4;;;18.8;;
23252;SDS011;11795;47.054;15.408;2022-09-06T06:16:00;20.4;;;18.8;;
23252;SDS011;11795;47.054;15.408;2022-09-06T06:18:00;19.4;;;17.8;;
23252;SDS011;11795;47.054;15.408;2022-09-06T06:20:00;19.4;;;17.8;;
23252;SDS011;11795;47.054;15.408;2022-09-06T06:22:00;19.1;;;17.4;;
23252;SDS011;11795;47.054;15.408;2022-09-06T06:24:01;19.1;;;17.4;;
23252;SDS011;11795;47.054;15.408;2022-09-06T06:26:00;19.1;;;17.4;;
23252;SDS011;11795;47.054;15.408;2022-09-06T06:28:00;21.9;;;20.0;;
23252;SDS011;11795;47.054;15.408;2022-09-06T06:30:00;21.9;;;20.0;;
23252;SDS011;11795;47.054;15.408;2022-09-06T06:32:00;20.4;;;18.8;;
23252;SDS011;11795;47.054;15.408;2022-09-06T06:34:02;20.4;;;18.8;;
23252;SDS011;11795;47.054;15.408;2022-09-06T06:36:01;20.4;;;18.8;;
23252;SDS011;11795;47.054;15.408;2022-09-06T06:38:00;18.9;;;17.3;;
23252;SDS011;11795;47.054;15.408;2022-09-06T06:40:00;18.9;;;17.3;;
23252;SDS011;11795;47.054;15.408;2022-09-06T06:42:00;18.7;;;17.2;;
23252;SDS011;11795;47.054;15.408;2022-09-06T06:44:00;18.7;;;17.2;;
23252;SDS011;11795;47.054;15.408;2022-09-06T06:46:00;18.7;;;17.2;;
23252;SDS011;11795;47.054;15.408;2022-09-06T06:48:00;17.0;;;15.7;;
23252;SDS011;11795;47.054;15.408;2022-09-06T06:50:00;17.0;;;15.7;;
23252;SDS011;11795;47.054;15.408;2022-09-06T06:52:00;17.4;;;16.0;;
23252;SDS011;11795;47.054;15.408;2022-09-06T06:54:00;17.4;;;16.0;;
23252;SDS011;11795;47.054;15.408;2022-09-06T06:56:00;17.4;;;16.0;;
23252;SDS011;11795;47.054;15.408;2022-09-06T06:58:00;17.9;;;16.4;;
23252;SDS011;11795;47.054;15.408;2022-09-06T07:00:01;17.9;;;16.4;;
23252;SDS011;11795;47.054;15.408;2022-09-06T07:02:00;20.7;;;18.8;;
23252;SDS011;11795;47.054;15.408;2022-09-06T07:04:00;20.7;;;18.8;;
23252;SDS011;11795;47.054;15.408;2022-09-06T07:06:00;20.7;;;18.8;;
23252;SDS011;11795;47.054;15.408;2022-09-06T07:08:00;18.5;;;17.0;;
23252;SDS011;11795;47.054;15.408;2022-09-06T07:10:00;18.5;;;17.0;;
23252;SDS011;11795;47.054;15.408;2022-09-06T07:12:00;17.3;;;15.8;;
23252;SDS011;11795;47.054;15.408;2022-09-06T07:14:00;17.3;;;15.8;;
23252;SDS011;11795;47.054;15.408;2022-09-06T07:18:01;16.5;;;15.2;;
23252;SDS011;11795;47.054;15.408;2022-09-06T07:20:00;16.5;;;15.2;;
23252;SDS011;11795;47.054;15.408;2022-09-06T07:22:00;18.2;;;16.8;;
23252;SDS011;11795;47.054;15.408;2022-09-06T07:24:00;18.2;;;16.8;;
23252;SDS011;11795;47.054;15.408;2022-09-06T07:26:00;18.2;;;16.8;;
23252;SDS011;11795;47.054;15.408;2022-09-06T07:28:01;19.6;;;18.0;;
23252;SDS011;11795;47.054;15.408;2022-09-06T07:30:00;19.6;;;18.0;;
23252;SDS011;11795;47.054;15.408;2022-09-06T07:32:00;18.0;;;16.5;;
23252;SDS011;11795;47.054;15.408;2022-09-06T07:34:00;18.0;;;16.5;;
23252;SDS011;11795;47.054;15.408;2022-09-06T07:36:00;18.0;;;16.5;;
23252;SDS011;11795;47.054;15.408;2022-09-06T07:38:00;17.6;;;16.1;;
23252;SDS011;11795;47.054;15.408;2022-09-06T07:40:00;17.6;;;16.1;;
23252;SDS011;11795;47.054;15.408;2022-09-06T07:42:01;17.9;;;16.4;;
23252;SDS011;11795;47.054;15.408;2022-09-06T07:44:00;17.9;;;16.4;;
23252;SDS011;11795;47.054;15.408;2022-09-06T07:46:00;17.9;;;16.4;;
23252;SDS011;11795;47.054;15.408;2022-09-06T07:48:00;14.5;;;13.3;;
23252;SDS011;11795;47.054;15.408;2022-09-06T07:50:00;14.5;;;13.3;;
23252;SDS011;11795;47.054;15.408;2022-09-06T07:52:00;21.3;;;19.4;;
23252;SDS011;11795;47.054;15.408;2022-09-06T07:54:00;21.3;;;19.4;;
23252;SDS011;11795;47.054;15.408;2022-09-06T07:56:01;21.3;;;19.4;;
23252;SDS011;11795;47.054;15.408;2022-09-06T07:58:00;18.0;;;16.4;;
23252;SDS011;11795;47.054;15.408;2022-09-06T08:00:00;18.0;;;16.4;;
23252;SDS011;11795;47.054;15.408;2022-09-06T08:02:00;18.6;;;17.0;;
23252;SDS011;11795;47.054;15.408;2022-09-06T08:04:00;18.6;;;17.0;;
23252;SDS011;11795;47.054;15.408;2022-09-06T08:06:00;18.6;;;17.0;;
23252;SDS011;11795;47.054;15.408;2022-09-06T08:08:00;17.4;;;15.7;;
23252;SDS011;11795;47.054;15.408;2022-09-06T08:10:00;17.4;;;15.7;;
23252;SDS011;11795;47.054;15.408;2022-09-06T08:12:05;19.4;;;17.7;;
23252;SDS011;11795;47.054;15.408;2022-09-06T08:14:00;19.4;;;17.7;;
23252;SDS011;11795;47.054;15.408;2022-09-06T08:16:00;19.4;;;17.7;;
23252;SDS011;11795;47.054;15.408;2022-09-06T08:18:00;19.8;;;18.0;;
23252;SDS011;11795;47.054;15.408;2022-09-06T08:20:00;19.8;;;18.0;;
23252;SDS011;11795;47.054;15.408;2022-09-06T08:22:00;19.8;;;18.0;;
23252;SDS011;11795;47.054;15.408;2022-09-06T08:24:01;18.3;;;16.7;;
23252;SDS011;11795;47.054;15.408;2022-09-06T08:26:00;18.3;;;16.7;;
23252;SDS011;11795;47.054;15.408;2022-09-06T08:28:00;17.6;;;16.0;;
23252;SDS011;11795;47.054;15.408;2022-09-06T08:30:00;17.6;;;16.0;;
23252;SDS011;11795;47.054;15.408;2022-09-06T08:32:00;17.6;;;16.0;;
23252;SDS011;11795;47.054;15.408;2022-09-06T08:34:00;18.4;;;16.8;;
23252;SDS011;11795;47.054;15.408;2022-09-06T08:36:00;18.4;;;16.8;;
23252;SDS011;11795;47.054;15.408;2022-09-06T08:38:00;15.1;;;13.8;;
23252;SDS011;11795;47.054;15.408;2022-09-06T08:40:00;15.1;;;13.8;;
23252;SDS011;11795;47.054;15.408;2022-09-06T08:42:00;15.1;;;13.8;;
23252;SDS011;11795;47.054;15.408;2022-09-06T08:44:01;13.6;;;12.5;;
23252;SDS011;11795;47.054;15.408;2022-09-06T08:46:00;13.6;;;12.5;;
23252;SDS011;11795;47.054;15.408;2022-09-06T08:48:00;15.3;;;14.0;;
23252;SDS011;11795;47.054;15.408;2022-09-06T08:50:03;15.3;;;14.0;;
23252;SDS011;11795;47.054;15.408;2022-09-06T08:52:06;15.3;;;14.0;;
23252;SDS011;11795;47.054;15.408;2022-09-06T08:54:03;15.8;;;14.5;;
23252;SDS011;11795;47.054;15.408;2022-09-06T08:56:02;15.8;;;14.5;;
23252;SDS011;11795;47.054;15.408;2022-09-06T08:58:04;16.6;;;15.2;;
23252;SDS011;11795;47.054;15.408;2022-09-06T09:00:01;16.6;;;15.2;;
23252;SDS011;11795;47.054;15.408;2022-09-06T09:02:02;16.6;;;15.2;;
23252;SDS011;11795;47.054;15.408;2022-09-06T09:04:01;15.9;;;14.6;;
23252;SDS011;11795;47.054;15.408;2022-09-06T09:06:05;15.9;;;14.6;;
23252;SDS011;11795;47.054;15.408;2022-09-06T09:08:02;15.7;;;14.3;;
23252;SDS011;11795;47.054;15.408;2022-09-06T09:10:00;15.7;;;14.3;;
23252;SDS011;11795;47.054;15.408;2022-09-06T09:12:00;15.7;;;14.3;;
23252;SDS011;11795;47.054;15.408;2022-09-06T09:14:02;16.1;;;14.6;;
23252;SDS011;11795;47.054;15.408;2022-09-06T09:16:00;16.1;;;14.6;;
23252;SDS011;11795;47.054;15.408;2022-09-06T09:18:00;13.7;;;12.5;;
23252;SDS011;11795;47.054;15.408;2022-09-06T09:20:00;13.7;;;12.5;;
23252;SDS011;11795;47.054;15.408;2022-09-06T09:22:00;13.7;;;12.5;;
23252;SDS011;11795;47.054;15.408;2022-09-06T09:24:01;11.7;;;10.8;;
23252;SDS011;11795;47.054;15.408;2022-09-06T09:26:01;11.7;;;10.8;;
23252;SDS011;11795;47.054;15.408;2022-09-06T09:28:00;13.8;;;12.7;;
23252;SDS011;11795;47.054;15.408;2022-09-06T09:30:02;13.8;;;12.7;;
23252;SDS011;11795;47.054;15.408;2022-09-06T09:32:00;13.8;;;12.7;;
23252;SDS011;11795;47.054;15.408;2022-09-06T09:34:03;12.1;;;11.1;;
23252;SDS011;11795;47.054;15.408;2022-09-06T09:36:00;12.1;;;11.1;;
23252;SDS011;11795;47.054;15.408;2022-09-06T09:38:01;14.2;;;12.8;;
23252;SDS011;11795;47.054;15.408;2022-09-06T09:40:00;14.2;;;12.8;;
23252;SDS011;11795;47.054;15.408;2022-09-06T09:42:00;14.2;;;12.8;;
23252;SDS011;11795;47.054;15.408;2022-09-06T09:44:00;13.0;;;11.8;;
23252;SDS011;11795;47.054;15.408;2022-09-06T09:46:08;13.0;;;11.8;;
23252;SDS011;11795;47.054;15.408;2022-09-06T09:48:02;12.4;;;11.2;;
23252;SDS011;11795;47.054;15.408;2022-09-06T09:50:00;12.4;;;11.2;;
23252;SDS011;11795;47.054;15.408;2022-09-06T09:52:03;12.4;;;11.2;;
23252;SDS011;11795;47.054;15.408;2022-09-06T09:54:01;11.0;;;10.1;;
23252;SDS011;11795;47.054;15.408;2022-09-06T09:56:00;11.0;;;10.1;;
23252;SDS011;11795;47.054;15.408;2022-09-06T09:58:00;9.5;;;8.7;;
23252;SDS011;11795;47.054;15.408;2022-09-06T10:00:00;9.5;;;8.7;;
23252;SDS011;11795;47.054;15.408;2022-09-06T10:02:00;9.5;;;8.7;;
23252;SDS011;11795;47.054;15.408;2022-09-06T10:04:02;9.7;;;9.0;;
23252;SDS011;11795;47.054;15.408;2022-09-06T10:06:00;9.7;;;9.0;;
23252;SDS011;11795;47.054;15.408;2022-09-06T10:08:00;10.5;;;9.6;;
23252;SDS011;11795;47.054;15.408;2022-09-06T10:10:01;10.5;;;9.6;;
23252;SDS011;11795;47.054;15.408;2022-09-06T10:12:00;10.5;;;9.6;;
23252;SDS011;11795;47.054;15.408;2022-09-06T10:14:08;9.6;;;8.8;;
23252;SDS011;11795;47.054;15.408;2022-09-06T10:16:02;9.6;;;8.8;;
23252;SDS011;11795;47.054;15.408;2022-09-06T10:18:00;9.3;;;8.5;;
23252;SDS011;11795;47.054;15.408;2022-09-06T10:20:03;9.3;;;8.5;;
23252;SDS011;11795;47.054;15.408;2022-09-06T10:22:02;9.3;;;8.5;;
23252;SDS011;11795;47.054;15.408;2022-09-06T10:24:01;8.8;;;8.1;;
23252;SDS011;11795;47.054;15.408;2022-09-06T10:26:01;8.8;;;8.1;;
23252;SDS011;11795;47.054;15.408;2022-09-06T10:30:01;9.2;;;8.4;;
23252;SDS011;11795;47.054;15.408;2022-09-06T10:32:03;9.2;;;8.4;;
23252;SDS011;11795;47.054;15.408;2022-09-06T10:34:02;8.2;;;7.6;;
23252;SDS011;11795;47.054;15.408;2022-09-06T10:36:00;8.2;;;7.6;;
23252;SDS011;11795;47.054;15.408;2022-09-06T10:38:06;8.6;;;7.9;;
23252;SDS011;11795;47.054;15.408;2022-09-06T10:40:02;8.6;;;7.9;;
23252;SDS011;11795;47.054;15.408;2022-09-06T10:42:03;8.6;;;7.9;;
23252;SDS011;11795;47.054;15.408;2022-09-06T10:44:04;9.5;;;8.7;;
23252;SDS011;11795;47.054;15.408;2022-09-06T10:46:01;9.5;;;8.7;;
23252;SDS011;11795;47.054;15.408;2022-09-06T10:48:02;8.6;;;7.8;;
23252;SDS011;11795;47.054;15.408;2022-09-06T10:50:00;8.6;;;7.8;;
23252;SDS011;11795;47.054;15.408;2022-09-06T10:52:00;8.6;;;7.8;;
23252;SDS011;11795;47.054;15.408;2022-09-06T10:54:02;8.2;;;7.5;;
23252;SDS011;11795;47.054;15.408;2022-09-06T10:56:03;8.2;;;7.5;;
23252;SDS011;11795;47.054;15.408;2022-09-06T10:58:03;7.6;;;6.9;;
23252;SDS011;11795;47.054;15.408;2022-09-06T11:00:01;7.6;;;6.9;;
23252;SDS011;11795;47.054;15.408;2022-09-06T11:02:03;7.6;;;6.9;;
23252;SDS011;11795;47.054;15.408;2022-09-06T11:04:00;9.5;;;8.6;;
23252;SDS011;11795;47.054;15.408;2022-09-06T11:06:01;9.5;;;8.6;;
23252;SDS011;11795;47.054;15.408;2022-09-06T11:08:00;7.9;;;7.3;;
23252;SDS011;11795;47.054;15.408;2022-09-06T11:10:01;7.9;;;7.3;;
23252;SDS011;11795;47.054;15.408;2022-09-06T11:12:02;7.9;;;7.3;;
23252;SDS011;11795;47.054;15.408;2022-09-06T11:14:00;8.9;;;8.2;;
23252;SDS011;11795;47.054;15.408;2022-09-06T11:16:00;8.9;;;8.2;;
23252;SDS011;11795;47.054;15.408;2022-09-06T11:18:01;8.0;;;7.4;;
23252;SDS011;11795;47.054;15.408;2022-09-06T11:20:01;8.0;;;7.4;;
23252;SDS011;11795;47.054;15.408;2022-09-06T11:22:07;8.0;;;7.4;;
23252;SDS011;11795;47.054;15.408;2022-09-06T11:24:02;8.0;;;7.3;;
23252;SDS011;11795;47.054;15.408;2022-09-06T11:26:03;8.0;;;7.3;;
23252;SDS011;11795;47.054;15.408;2022-09-06T11:28:00;9.0;;;8.3;;
23252;SDS011;11795;47.054;15.408;2022-09-06T11:30:00;9.0;;;8.3;;
23252;SDS011;11795;47.054;15.408;2022-09-06T11:32:00;9.0;;;8.3;;
23252;SDS011;11795;47.054;15.408;2022-09-06T11:34:01;8.6;;;7.8;;
23252;SDS011;11795;47.054;15.408;2022-09-06T11:38:00;8.6;;;7.8;;
23252;SDS011;11795;47.054;15.408;2022-09-06T11:40:02;7.3;;;6.7;;
23252;SDS011;11795;47.054;15.408;2022-09-06T11:42:00;7.3;;;6.7;;
23252;SDS011;11795;47.054;15.408;2022-09-06T11:44:00;6.9;;;6.4;;
23252;SDS011;11795;47.054;15.408;2022-09-06T11:46:00;6.9;;;6.4;;
23252;SDS011;11795;47.054;15.408;2022-09-06T11:52:00;7.2;;;6.6;;
23252;SDS011;11795;47.054;15.408;2022-09-06T11:54:03;7.8;;;7.2;;
23252;SDS011;11795;47.054;15.408;2022-09-06T11:58:01;7.8;;;7.2;;
23252;SDS011;11795;47.054;15.408;2022-09-06T12:00:00;7.0;;;6.5;;
23252;SDS011;11795;47.054;15.408;2022-09-06T12:02:01;7.0;;;6.5;;
23252;SDS011;11795;47.054;15.408;2022-09-06T12:04:01;7.4;;;6.7;;
23252;SDS011;11795;47.054;15.408;2022-09-06T12:10:00;7.2;;;6.6;;
23252;SDS011;11795;47.054;15.408;2022-09-06T12:12:00;7.2;;;6.6;;
23252;SDS011;11795;47.054;15.408;2022-09-06T12:14:04;6.6;;;6.1;;